createdAt,value
2023-03-02T00:01:57.642Z,40.65
2023-03-02T00:04:28.626Z,38.85
2023-03-02T00:07:01.082Z,36.67
2023-03-02T00:09:31.795Z,30.88
2023-03-02T00:12:00.177Z,33.72
2023-03-02T00:14:29.529Z,38.63
2023-03-02T00:16:57.893Z,42.42
2023-03-02T00:19:27.736Z,40.80
2023-03-02T00:21:56.684Z,33.60
2023-03-02T00:24:24.968Z,42.53
2023-03-02T00:26:54.668Z,39.90
2023-03-02T00:29:23.657Z,31.77
2023-03-02T00:31:51.874Z,36.67
2023-03-02T00:34:20.480Z,32.72
2023-03-02T00:36:49.670Z,38.67
2023-03-02T00:39:20.730Z,43.05
2023-03-02T00:41:49.922Z,39.35
2023-03-02T00:44:19.555Z,34.03
2023-03-02T00:46:47.727Z,34.28
2023-03-02T00:49:16.438Z,35.88
2023-03-02T00:51:44.610Z,38.20
2023-03-02T00:54:12.649Z,38.42
2023-03-02T00:56:41.401Z,41.80
2023-03-02T00:59:26.764Z,40.83
2023-03-02T01:01:59.440Z,37.00
2023-03-02T01:04:29.925Z,34.17
2023-03-02T01:06:58.826Z,33.53
2023-03-02T01:09:27.689Z,34.22
2023-03-02T01:11:56.149Z,34.65
2023-03-02T01:14:25.175Z,33.28
2023-03-02T01:16:54.377Z,34.15
2023-03-02T01:19:24.146Z,38.05
2023-03-02T01:21:52.649Z,38.05
2023-03-02T01:24:23.348Z,33.42
2023-03-02T01:26:51.609Z,37.17
2023-03-02T01:29:20.277Z,39.42
2023-03-02T01:31:49.332Z,39.40
2023-03-02T01:34:17.805Z,35.70
2023-03-02T01:36:47.431Z,34.30
2023-03-02T01:39:16.878Z,40.70
2023-03-02T01:41:45.855Z,30.50
2023-03-02T01:44:36.912Z,36.33
2023-03-02T01:47:07.143Z,33.40
2023-03-02T01:49:39.268Z,43.53
2023-03-02T01:52:10.630Z,49.63
2023-03-02T01:54:40.084Z,55.75
2023-03-02T01:57:09.321Z,36.53
2023-03-02T01:59:39.684Z,30.48
2023-03-02T02:02:13.552Z,37.65
2023-03-02T02:04:46.413Z,33.45
2023-03-02T02:07:17.334Z,30.45
2023-03-02T02:09:48.466Z,35.70
2023-03-02T02:12:18.921Z,35.72
2023-03-02T02:14:48.221Z,40.67
2023-03-02T02:17:17.662Z,27.88
2023-03-02T02:19:57.124Z,33.10
2023-03-02T02:22:41.518Z,31.40
2023-03-02T02:25:19.800Z,36.90
2023-03-02T02:27:49.790Z,38.63
2023-03-02T02:30:20.004Z,35.17
2023-03-02T02:32:51.158Z,37.58
2023-03-02T02:35:24.850Z,41.95
2023-03-02T02:37:56.635Z,33.78
2023-03-02T02:40:43.248Z,35.55
2023-03-02T02:43:14.385Z,36.95
2023-03-02T02:45:44.015Z,31.58
2023-03-02T02:48:16.685Z,35.47
2023-03-02T02:50:46.022Z,30.30
2023-03-02T02:53:19.179Z,30.77
2023-03-02T02:55:50.213Z,30.67
2023-03-02T02:58:29.754Z,30.48
2023-03-02T03:00:58.631Z,34.20
2023-03-02T03:03:31.432Z,35.13
2023-03-02T03:06:02.617Z,28.95
2023-03-02T03:09:00.083Z,27.73
2023-03-02T03:11:31.626Z,27.55
2023-03-02T03:14:08.789Z,30.08
2023-03-02T03:16:39.756Z,32.20
2023-03-02T03:19:15.574Z,31.42
2023-03-02T03:21:44.330Z,31.23
2023-03-02T03:24:12.630Z,29.17
2023-03-02T03:26:41.103Z,36.40
2023-03-02T03:29:11.866Z,36.10
2023-03-02T03:31:40.263Z,25.92
2023-03-02T03:34:09.040Z,37.00
2023-03-02T03:36:39.037Z,32.08
2023-03-02T03:39:07.814Z,29.25
2023-03-02T03:41:36.596Z,29.30
2023-03-02T03:44:05.508Z,33.63
2023-03-02T03:46:36.456Z,28.42
2023-03-02T03:49:06.388Z,31.85
2023-03-02T03:51:35.574Z,35.35
2023-03-02T03:54:05.066Z,29.92
2023-03-02T03:56:35.609Z,37.28
2023-03-02T03:59:08.033Z,35.72
2023-03-02T04:01:40.713Z,31.45
2023-03-02T04:04:16.138Z,33.92
2023-03-02T04:06:44.973Z,29.85
2023-03-02T04:09:15.652Z,47.70
2023-03-02T04:11:45.957Z,33.80
2023-03-02T04:14:15.357Z,31.50
2023-03-02T04:16:46.608Z,34.10
2023-03-02T04:19:17.601Z,33.10
2023-03-02T04:21:49.162Z,34.80
2023-03-02T04:24:18.804Z,33.53
2023-03-02T04:26:49.622Z,33.47
2023-03-02T04:29:18.805Z,29.80
2023-03-02T04:31:50.129Z,29.92
2023-03-02T04:34:18.747Z,23.25
2023-03-02T04:36:47.496Z,33.50
2023-03-02T04:39:18.535Z,29.50
2023-03-02T04:41:48.190Z,30.55
2023-03-02T04:44:19.237Z,29.65
2023-03-02T04:46:49.846Z,34.55
2023-03-02T04:49:19.944Z,39.28
2023-03-02T04:51:49.929Z,37.22
2023-03-02T04:54:22.043Z,32.35
2023-03-02T04:56:51.820Z,41.85
2023-03-02T04:59:26.055Z,31.25
2023-03-02T05:01:57.189Z,35.45
2023-03-02T05:04:25.988Z,26.25
2023-03-02T05:06:54.186Z,29.92
2023-03-02T05:09:27.376Z,29.65
2023-03-02T05:11:56.069Z,31.02
2023-03-02T05:14:24.511Z,35.28
2023-03-02T05:16:53.144Z,29.90
2023-03-02T05:19:23.004Z,29.15
2023-03-02T05:21:51.431Z,30.38
2023-03-02T05:24:20.532Z,42.28
2023-03-02T05:26:48.862Z,35.70
2023-03-02T05:29:17.074Z,28.33
2023-03-02T05:31:46.995Z,31.92
2023-03-02T05:34:17.427Z,32.47
2023-03-02T05:36:47.592Z,36.28
2023-03-02T05:39:15.850Z,29.67
2023-03-02T05:41:44.032Z,34.08
2023-03-02T05:44:13.099Z,32.55
2023-03-02T05:46:41.661Z,32.03
2023-03-02T05:49:16.290Z,35.60
2023-03-02T05:51:44.639Z,30.75
2023-03-02T05:54:13.978Z,35.30
2023-03-02T05:56:42.521Z,34.97
2023-03-02T05:59:10.431Z,32.20
2023-03-02T06:01:39.121Z,30.45
2023-03-02T06:04:08.200Z,32.72
2023-03-02T06:06:36.733Z,43.15
2023-03-02T06:09:05.202Z,40.60
2023-03-02T06:11:35.524Z,33.40
2023-03-02T06:14:03.564Z,33.53
2023-03-02T06:16:33.969Z,37.78
2023-03-02T06:19:04.055Z,36.42
2023-03-02T06:21:32.722Z,31.58
2023-03-02T06:24:00.928Z,30.88
2023-03-02T06:26:29.794Z,34.90
2023-03-02T06:29:00.119Z,34.20
2023-03-02T06:31:29.020Z,44.47
2023-03-02T06:34:00.659Z,47.90
2023-03-02T06:36:29.820Z,36.72
2023-03-02T06:38:58.476Z,68.22
2023-03-02T06:41:27.727Z,38.97
2023-03-02T06:43:57.094Z,40.50
2023-03-02T06:46:27.055Z,37.00
2023-03-02T06:48:57.942Z,38.77
2023-03-02T06:51:27.194Z,34.67
2023-03-02T06:53:59.049Z,59.87
2023-03-02T06:56:27.639Z,52.20
2023-03-02T06:58:56.905Z,44.20
2023-03-02T07:01:26.970Z,41.23
2023-03-02T07:03:55.321Z,37.00
2023-03-02T07:06:23.603Z,40.00
2023-03-02T07:08:52.215Z,34.60
2023-03-02T07:11:22.824Z,38.33
2023-03-02T07:13:52.015Z,39.13
2023-03-02T07:16:20.217Z,43.33
2023-03-02T07:18:50.288Z,30.50
2023-03-02T07:21:18.673Z,35.70
2023-03-02T07:23:47.888Z,39.57
2023-03-02T07:26:16.361Z,36.83
2023-03-02T07:28:44.549Z,33.40
2023-03-02T07:31:13.320Z,36.50
2023-03-02T07:33:42.927Z,38.30
2023-03-02T07:36:12.483Z,41.77
2023-03-02T07:38:40.530Z,34.80
2023-03-02T07:41:10.413Z,35.27
2023-03-02T07:43:39.310Z,39.23
2023-03-02T07:46:07.906Z,33.57
2023-03-02T07:48:36.669Z,34.53
2023-03-02T07:51:06.706Z,33.13
2023-03-02T07:53:37.192Z,39.57
2023-03-02T07:56:10.605Z,31.90
2023-03-02T07:58:39.699Z,36.67
2023-03-02T08:01:08.949Z,40.27
2023-03-02T08:03:37.789Z,37.30
2023-03-02T08:06:07.837Z,36.70
2023-03-02T08:08:38.468Z,28.53
2023-03-02T08:11:09.274Z,31.23
2023-03-02T08:13:37.782Z,32.57
2023-03-02T08:16:08.254Z,97.40
2023-03-02T08:18:38.327Z,63.13
2023-03-02T08:21:13.175Z,31.13
2023-03-02T08:23:43.894Z,26.90
2023-03-02T08:26:15.853Z,23.40
2023-03-02T08:28:46.232Z,27.00
2023-03-02T08:31:15.503Z,29.47
2023-03-02T08:33:44.772Z,64.60
2023-03-02T08:36:16.210Z,33.23
2023-03-02T08:38:46.585Z,34.23
2023-03-02T08:41:17.333Z,23.83
2023-03-02T08:43:45.691Z,29.57
2023-03-02T08:46:15.180Z,36.30
2023-03-02T08:48:44.258Z,26.63
2023-03-02T08:51:15.013Z,34.73
2023-03-02T08:53:47.496Z,26.73
2023-03-02T08:56:20.942Z,32.63
2023-03-02T08:58:53.321Z,29.17
2023-03-02T09:01:23.498Z,27.07
2023-03-02T09:03:52.730Z,41.13
2023-03-02T09:06:21.114Z,35.27
2023-03-02T09:08:52.065Z,43.97
2023-03-02T09:11:21.035Z,24.73
2023-03-02T09:13:49.438Z,27.80
2023-03-02T09:16:20.288Z,22.10
2023-03-02T09:18:49.819Z,32.87
2023-03-02T09:21:18.852Z,36.50
2023-03-02T09:23:47.954Z,31.83
2023-03-02T09:26:18.690Z,19.13
2023-03-02T09:28:46.940Z,26.43
2023-03-02T09:31:15.319Z,28.67
2023-03-02T09:33:44.194Z,18.93
2023-03-02T09:36:16.978Z,33.77
2023-03-02T09:38:45.961Z,21.83
2023-03-02T09:41:50.637Z,29.80
2023-03-02T09:44:36.511Z,20.80
2023-03-02T09:47:07.034Z,25.50
2023-03-02T09:49:52.332Z,22.03
2023-03-02T09:52:32.286Z,23.70
2023-03-02T09:55:04.548Z,29.00
2023-03-02T09:57:39.955Z,22.60
2023-03-02T10:00:19.430Z,18.37
2023-03-02T10:02:50.697Z,22.00
2023-03-02T10:05:22.133Z,21.23
2023-03-02T10:07:50.384Z,18.47
2023-03-02T10:10:28.044Z,20.20
2023-03-02T10:13:12.769Z,18.03
2023-03-02T10:15:50.781Z,27.83
2023-03-02T10:18:24.487Z,32.33
2023-03-02T10:20:58.412Z,13.70
2023-03-02T10:23:41.699Z,23.53
2023-03-02T10:26:24.251Z,19.40
2023-03-02T10:29:01.614Z,27.23
2023-03-02T10:31:34.840Z,29.17
2023-03-02T10:34:02.973Z,17.63
2023-03-02T10:36:40.575Z,23.43
2023-03-02T10:39:15.392Z,22.97
2023-03-02T10:41:50.036Z,20.53
2023-03-02T10:44:23.872Z,18.97
2023-03-02T10:46:54.582Z,18.30
2023-03-02T10:49:28.088Z,16.90
2023-03-02T10:51:59.536Z,31.47
2023-03-02T10:54:28.920Z,24.40
2023-03-02T10:57:01.174Z,19.10
2023-03-02T10:59:47.816Z,16.73
2023-03-02T11:02:23.094Z,16.20
2023-03-02T11:04:57.706Z,22.57
2023-03-02T11:07:29.316Z,14.87
2023-03-02T11:10:05.723Z,18.30
2023-03-02T11:12:37.883Z,21.70
2023-03-02T11:15:23.847Z,20.30
2023-03-02T11:18:01.631Z,15.03
2023-03-02T11:20:33.913Z,18.00
2023-03-02T11:23:23.788Z,22.87
2023-03-02T11:25:57.135Z,16.43
2023-03-02T11:28:42.775Z,22.17
2023-03-02T11:31:21.495Z,28.43
2023-03-02T11:34:11.945Z,16.40
2023-03-02T11:36:52.347Z,21.63
2023-03-02T11:39:27.485Z,17.70
2023-03-02T11:41:55.903Z,23.90
2023-03-02T11:44:27.963Z,23.20
2023-03-02T11:47:02.098Z,22.63
2023-03-02T11:49:41.194Z,22.47
2023-03-02T11:52:20.046Z,19.23
2023-03-02T11:54:54.831Z,23.53
2023-03-02T11:57:29.134Z,26.90
2023-03-02T11:59:59.826Z,18.00
2023-03-02T12:02:30.010Z,17.60
2023-03-02T12:05:06.519Z,20.20
2023-03-02T12:07:34.753Z,18.70
2023-03-02T12:10:08.042Z,17.43
2023-03-02T12:12:42.043Z,21.40
2023-03-02T12:15:30.286Z,25.23
2023-03-02T12:17:59.745Z,18.90
2023-03-02T12:20:31.003Z,22.13
2023-03-02T12:23:11.515Z,18.90
2023-03-02T12:25:50.276Z,21.30
2023-03-02T12:28:31.820Z,23.00
2023-03-02T12:31:10.622Z,22.73
2023-03-02T12:33:49.228Z,20.40
2023-03-02T12:36:25.071Z,22.07
2023-03-02T12:39:15.051Z,24.43
2023-03-02T12:42:06.117Z,19.03
2023-03-02T12:44:49.798Z,17.50
2023-03-02T12:47:26.544Z,21.87
2023-03-02T12:49:58.853Z,16.30
2023-03-02T12:52:33.687Z,22.50
2023-03-02T12:55:05.392Z,20.03
2023-03-02T12:57:34.716Z,21.00
2023-03-02T13:00:04.768Z,22.37
2023-03-02T13:02:36.312Z,14.93
2023-03-02T13:05:09.005Z,18.10
2023-03-02T13:07:39.793Z,22.47
2023-03-02T13:10:22.641Z,18.60
2023-03-02T13:12:51.268Z,27.83
2023-03-02T13:15:20.182Z,19.57
2023-03-02T13:17:56.808Z,22.90
2023-03-02T13:20:29.960Z,19.47
2023-03-02T13:22:59.247Z,15.97
2023-03-02T13:25:30.018Z,25.10
2023-03-02T13:28:01.272Z,18.23
2023-03-02T13:30:32.420Z,20.67
2023-03-02T13:33:04.362Z,20.20
2023-03-02T13:35:38.060Z,15.23
2023-03-02T13:38:15.800Z,27.37
2023-03-02T13:40:47.682Z,23.30
2023-03-02T13:43:35.505Z,20.00
2023-03-02T13:46:06.221Z,26.37
2023-03-02T13:48:34.545Z,15.27
2023-03-02T13:51:15.156Z,17.17
2023-03-02T13:53:52.332Z,19.73
2023-03-02T13:56:22.375Z,21.40
2023-03-02T13:58:50.947Z,22.37
2023-03-02T14:01:25.087Z,22.33
2023-03-02T14:03:54.892Z,17.77
2023-03-02T14:06:25.960Z,21.07
2023-03-02T14:08:54.997Z,18.63
2023-03-02T14:11:25.507Z,15.37
2023-03-02T14:13:55.894Z,18.93
2023-03-02T14:16:24.398Z,24.27
2023-03-02T14:18:53.940Z,19.83
2023-03-02T14:21:23.924Z,15.27
2023-03-02T14:23:54.688Z,18.13
2023-03-02T14:26:32.007Z,15.57
2023-03-02T14:29:06.292Z,16.93
2023-03-02T14:31:35.770Z,20.77
2023-03-02T14:34:05.235Z,16.33
2023-03-02T14:36:35.238Z,15.63
2023-03-02T14:39:12.485Z,18.30
2023-03-02T14:41:53.021Z,18.00
2023-03-02T14:44:23.267Z,15.27
2023-03-02T14:46:51.746Z,23.00
2023-03-02T14:49:20.446Z,16.40
2023-03-02T14:51:58.257Z,17.43
2023-03-02T14:54:31.979Z,16.00
2023-03-02T14:57:00.972Z,21.13
2023-03-02T14:59:29.366Z,16.70
2023-03-02T15:02:02.456Z,19.50
2023-03-02T15:04:36.634Z,21.47
2023-03-02T15:07:05.841Z,11.47
2023-03-02T15:09:35.745Z,19.40
2023-03-02T15:12:04.486Z,17.07
2023-03-02T15:14:35.742Z,20.23
2023-03-02T15:17:04.678Z,15.57
2023-03-02T15:19:33.691Z,20.10
2023-03-02T15:22:02.492Z,18.43
2023-03-02T15:24:33.165Z,19.63
2023-03-02T15:27:03.618Z,20.70
2023-03-02T15:29:32.237Z,25.97
2023-03-02T15:32:01.112Z,24.80
2023-03-02T15:34:30.078Z,23.20
2023-03-02T15:36:58.260Z,21.27
2023-03-02T15:39:26.810Z,24.53
2023-03-02T15:41:55.584Z,22.77
2023-03-02T15:44:26.399Z,27.20
2023-03-02T15:46:56.223Z,25.07
2023-03-02T15:49:27.312Z,27.17
2023-03-02T15:51:58.042Z,29.70
2023-03-02T15:54:28.598Z,26.10
2023-03-02T15:56:57.412Z,27.27
2023-03-02T15:59:28.834Z,33.53
2023-03-02T16:02:00.029Z,37.67
2023-03-02T16:04:29.064Z,36.07
2023-03-02T16:06:57.435Z,37.90
2023-03-02T16:09:29.425Z,29.47
2023-03-02T16:11:57.656Z,31.07
2023-03-02T16:14:27.605Z,39.30
2023-03-02T16:16:56.628Z,32.40
2023-03-02T16:19:25.176Z,34.33
2023-03-02T16:21:53.556Z,36.17
2023-03-02T16:24:22.249Z,41.60
2023-03-02T16:26:54.966Z,38.57
2023-03-02T16:29:24.512Z,38.97
2023-03-02T16:31:54.309Z,33.20
2023-03-02T16:34:23.035Z,33.13
2023-03-02T16:36:51.717Z,36.27
2023-03-02T16:39:20.859Z,40.83
2023-03-02T16:41:49.236Z,32.63
2023-03-02T16:44:17.860Z,34.90
2023-03-02T16:46:46.739Z,39.23
2023-03-02T16:49:16.580Z,33.00
2023-03-02T16:51:45.457Z,36.23
2023-03-02T16:54:19.613Z,32.60
2023-03-02T16:56:48.419Z,31.53
2023-03-02T16:59:17.069Z,32.03
2023-03-02T17:01:46.300Z,40.60
2023-03-02T17:04:18.515Z,32.30
2023-03-02T17:07:03.653Z,32.30
2023-03-02T17:09:33.129Z,37.50
2023-03-02T17:12:01.728Z,35.50
2023-03-02T17:14:30.320Z,37.77
2023-03-02T17:16:58.384Z,29.40
2023-03-02T17:19:30.026Z,36.70
2023-03-02T17:21:59.255Z,34.10
2023-03-02T17:24:28.146Z,34.47
2023-03-02T17:26:58.621Z,30.33
2023-03-02T17:29:26.627Z,36.10
2023-03-02T17:31:55.063Z,37.87
2023-03-02T17:34:24.154Z,30.43
2023-03-02T17:36:54.017Z,31.93
2023-03-02T17:39:22.495Z,32.47
2023-03-02T17:41:51.290Z,36.07
2023-03-02T17:44:19.602Z,31.53
2023-03-02T17:46:49.368Z,32.97
2023-03-02T17:49:18.264Z,32.00
2023-03-02T17:51:46.440Z,28.20
2023-03-02T17:54:16.410Z,31.37
2023-03-02T17:56:44.417Z,34.17
2023-03-02T17:59:13.258Z,35.30
2023-03-02T18:01:44.098Z,31.10
2023-03-02T18:04:12.802Z,34.80
2023-03-02T18:06:42.234Z,29.70
2023-03-02T18:09:11.995Z,35.67
2023-03-02T18:11:42.636Z,36.73
2023-03-02T18:14:14.776Z,26.90
2023-03-02T18:16:42.861Z,32.30
2023-03-02T18:19:11.437Z,36.17
2023-03-02T18:21:42.247Z,31.17
2023-03-02T18:24:11.062Z,31.77
2023-03-02T18:26:39.797Z,32.60
2023-03-02T18:29:09.739Z,28.47
2023-03-02T18:31:38.157Z,34.13
2023-03-02T18:34:06.410Z,28.80
2023-03-02T18:36:35.607Z,34.13
2023-03-02T18:39:04.845Z,29.70
2023-03-02T18:41:33.480Z,31.10
2023-03-02T18:44:04.071Z,34.17
2023-03-02T18:46:34.477Z,36.03
2023-03-02T18:49:05.042Z,32.53
2023-03-02T18:51:33.352Z,32.40
2023-03-02T18:54:01.406Z,28.87
2023-03-02T18:56:30.497Z,35.23
2023-03-02T18:58:59.003Z,33.43
2023-03-02T19:01:33.809Z,35.03
2023-03-02T19:04:03.741Z,31.63
2023-03-02T19:06:31.944Z,43.93
2023-03-02T19:09:00.829Z,37.83
2023-03-02T19:11:29.121Z,34.23
2023-03-02T19:13:57.660Z,40.00
2023-03-02T19:16:26.199Z,34.70
2023-03-02T19:18:55.766Z,38.83
2023-03-02T19:21:24.124Z,32.67
2023-03-02T19:23:53.228Z,35.73
2023-03-02T19:26:21.703Z,37.67
2023-03-02T19:28:50.100Z,31.67
2023-03-02T19:31:18.683Z,35.87
2023-03-02T19:33:47.043Z,37.67
2023-03-02T19:36:16.872Z,38.40
2023-03-02T19:38:45.345Z,39.17
2023-03-02T19:41:16.388Z,42.40
2023-03-02T19:43:46.410Z,38.30
2023-03-02T19:46:15.331Z,39.10
2023-03-02T19:48:43.720Z,39.97
2023-03-02T19:51:12.684Z,32.30
2023-03-02T19:53:43.695Z,33.13
2023-03-02T19:56:15.419Z,37.67
2023-03-02T19:58:50.058Z,30.73
2023-03-02T20:01:22.211Z,41.30
2023-03-02T20:03:51.851Z,35.27
2023-03-02T20:06:20.269Z,40.90
2023-03-02T20:08:54.230Z,35.50
2023-03-02T20:11:22.542Z,36.27
2023-03-02T20:13:56.126Z,33.97
2023-03-02T20:16:26.727Z,38.77
2023-03-02T20:18:56.028Z,37.97
2023-03-02T20:21:27.097Z,55.70
2023-03-02T20:23:57.417Z,33.07
2023-03-02T20:26:26.309Z,32.67
2023-03-02T20:28:56.969Z,31.07
2023-03-02T20:31:26.574Z,28.50
2023-03-02T20:33:57.058Z,30.13
2023-03-02T20:36:30.446Z,30.87
2023-03-02T20:39:04.218Z,29.27
2023-03-02T20:41:32.948Z,31.90
2023-03-02T20:44:01.092Z,31.73
2023-03-02T20:46:31.857Z,28.07
2023-03-02T20:49:00.701Z,28.90
2023-03-02T20:51:30.103Z,34.40
2023-03-02T20:54:00.268Z,34.23
2023-03-02T20:56:29.066Z,31.27
2023-03-02T20:58:57.341Z,24.67
2023-03-02T21:01:25.600Z,32.07
2023-03-02T21:03:54.580Z,33.13
2023-03-02T21:06:23.439Z,37.10
2023-03-02T21:08:52.773Z,28.17
2023-03-02T21:11:23.948Z,28.47
2023-03-02T21:13:55.858Z,36.53
2023-03-02T21:16:27.732Z,32.13
2023-03-02T21:18:56.248Z,28.40
2023-03-02T21:21:40.364Z,32.03
2023-03-02T21:24:10.460Z,35.03
2023-03-02T21:26:41.576Z,36.47
2023-03-02T21:29:12.349Z,35.17
2023-03-02T21:31:42.190Z,35.87
2023-03-02T21:34:10.984Z,36.80
2023-03-02T21:36:39.629Z,32.90
2023-03-02T21:39:09.752Z,35.37
2023-03-02T21:41:41.046Z,31.33
2023-03-02T21:44:09.908Z,28.70
2023-03-02T21:46:39.929Z,38.53
2023-03-02T21:49:08.910Z,35.37
2023-03-02T21:51:37.296Z,42.17
2023-03-02T21:54:05.794Z,32.77
2023-03-02T21:56:34.576Z,39.80
2023-03-02T21:59:05.085Z,33.37
2023-03-02T22:01:33.923Z,33.63
2023-03-02T22:04:02.650Z,37.47
2023-03-02T22:06:32.745Z,34.33
2023-03-02T22:09:01.675Z,40.70
2023-03-02T22:11:32.396Z,39.80
2023-03-02T22:14:04.582Z,32.43
2023-03-02T22:16:37.210Z,35.40
2023-03-02T22:19:20.407Z,49.97
2023-03-02T22:21:50.050Z,36.37
2023-03-02T22:24:24.111Z,38.50
2023-03-02T22:26:59.866Z,35.80
2023-03-02T22:29:33.770Z,41.27
2023-03-02T22:32:14.960Z,33.43
2023-03-02T22:34:44.963Z,32.97
2023-03-02T22:37:15.609Z,33.23
2023-03-02T22:39:44.607Z,29.70
2023-03-02T22:42:16.449Z,35.33
2023-03-02T22:44:48.978Z,33.67
2023-03-02T22:47:20.281Z,33.83
2023-03-02T22:49:55.322Z,38.50
2023-03-02T22:52:26.303Z,33.43
2023-03-02T22:54:55.200Z,34.55
2023-03-02T22:57:31.677Z,35.17
2023-03-02T23:00:41.152Z,35.63
2023-03-02T23:03:18.966Z,28.10
2023-03-02T23:05:49.284Z,32.78
2023-03-02T23:08:23.202Z,39.65
2023-03-02T23:10:52.951Z,31.63
2023-03-02T23:13:27.256Z,28.85
2023-03-02T23:15:56.281Z,34.38
2023-03-02T23:18:29.004Z,33.85
2023-03-02T23:20:57.709Z,38.23
2023-03-02T23:23:28.019Z,32.42
2023-03-02T23:25:57.066Z,36.00
2023-03-02T23:28:25.064Z,30.33
2023-03-02T23:30:53.700Z,30.05
2023-03-02T23:33:22.440Z,33.03
2023-03-02T23:35:52.362Z,33.97
2023-03-02T23:38:20.475Z,35.85
2023-03-02T23:40:49.437Z,34.90
2023-03-02T23:43:19.959Z,35.70
2023-03-02T23:45:48.806Z,34.25
2023-03-02T23:48:16.813Z,33.08
2023-03-02T23:50:45.748Z,39.05
2023-03-02T23:53:15.962Z,32.60
2023-03-02T23:55:48.735Z,31.25
2023-03-02T23:58:20.636Z,31.50
